createdAt,value
2022-08-03T00:01:24.627Z,20.40
2022-08-03T00:03:51.012Z,20.40
2022-08-03T00:06:17.633Z,20.34
2022-08-03T00:08:44.101Z,20.30
2022-08-03T00:11:10.650Z,20.30
2022-08-03T00:13:37.501Z,20.30
2022-08-03T00:16:04.541Z,20.24
2022-08-03T00:18:31.049Z,20.20
2022-08-03T00:20:57.688Z,20.20
2022-08-03T00:23:24.261Z,20.20
2022-08-03T00:25:51.220Z,20.16
2022-08-03T00:28:17.810Z,20.10
2022-08-03T00:30:45.002Z,20.10
2022-08-03T00:33:11.691Z,20.06
2022-08-03T00:35:50.624Z,20.00
2022-08-03T00:38:19.041Z,20.00
2022-08-03T00:40:46.154Z,19.90
2022-08-03T00:43:12.713Z,19.80
2022-08-03T00:45:42.927Z,19.70
2022-08-03T00:48:31.038Z,19.70
2022-08-03T00:50:58.479Z,19.64
2022-08-03T00:53:25.198Z,19.70
2022-08-03T00:55:52.029Z,19.60
2022-08-03T00:58:18.904Z,19.60
2022-08-03T01:00:45.448Z,19.60
2022-08-03T01:03:12.002Z,19.60
2022-08-03T01:05:54.571Z,19.60
2022-08-03T01:08:56.837Z,19.60
2022-08-03T01:11:59.757Z,19.60
2022-08-03T01:15:28.648Z,19.60
2022-08-03T01:18:18.021Z,19.52
2022-08-03T01:20:51.145Z,19.50
2022-08-03T01:23:50.914Z,19.50
2022-08-03T01:26:48.339Z,19.50
2022-08-03T01:29:36.463Z,19.42
2022-08-03T01:33:03.075Z,19.40
2022-08-03T01:35:15.747Z,19.32
2022-08-03T01:37:52.698Z,19.30
2022-08-03T01:40:20.516Z,19.28
2022-08-03T01:42:48.878Z,19.20
2022-08-03T01:45:19.676Z,19.20
2022-08-03T01:47:47.778Z,19.20
2022-08-03T01:50:15.131Z,19.24
2022-08-03T01:52:47.030Z,19.24
2022-08-03T01:55:16.898Z,19.20
2022-08-03T01:58:05.937Z,19.20
2022-08-03T02:00:32.741Z,19.20
2022-08-03T02:03:01.108Z,19.20
2022-08-03T02:05:27.927Z,19.20
2022-08-03T02:07:55.614Z,19.20
2022-08-03T02:10:34.361Z,19.20
2022-08-03T02:13:06.565Z,19.10
2022-08-03T02:15:34.883Z,19.10
2022-08-03T02:18:02.691Z,19.00
2022-08-03T02:20:32.466Z,19.00
2022-08-03T02:22:59.107Z,18.96
2022-08-03T02:25:25.681Z,18.90
2022-08-03T02:28:01.666Z,18.92
2022-08-03T02:30:37.925Z,18.90
2022-08-03T02:33:13.548Z,18.90
2022-08-03T02:35:42.154Z,18.80
2022-08-03T02:38:12.815Z,18.80
2022-08-03T02:40:42.551Z,18.72
2022-08-03T02:43:16.814Z,18.70
2022-08-03T02:45:47.507Z,18.70
2022-08-03T02:48:28.045Z,18.70
2022-08-03T02:50:57.762Z,18.70
2022-08-03T02:53:27.743Z,18.68
2022-08-03T02:55:56.133Z,18.60
2022-08-03T02:58:24.175Z,18.60
2022-08-03T03:00:52.223Z,18.60
2022-08-03T03:03:20.542Z,18.52
2022-08-03T03:05:55.165Z,18.50
2022-08-03T03:08:28.760Z,18.50
2022-08-03T03:10:59.500Z,18.50
2022-08-03T03:13:29.555Z,18.50
2022-08-03T03:16:00.975Z,18.50
2022-08-03T03:18:30.356Z,18.50
2022-08-03T03:20:58.941Z,18.50
2022-08-03T03:23:27.497Z,18.52
2022-08-03T03:25:55.438Z,18.58
2022-08-03T03:28:25.900Z,18.60
2022-08-03T03:30:52.805Z,18.60
2022-08-03T03:33:21.932Z,18.60
2022-08-03T03:35:49.142Z,18.64
2022-08-03T03:38:15.670Z,18.66
2022-08-03T03:40:42.701Z,18.68
2022-08-03T03:43:11.671Z,18.70
2022-08-03T03:45:42.105Z,18.70
2022-08-03T03:48:09.660Z,18.70
2022-08-03T03:50:40.165Z,18.70
2022-08-03T03:53:10.456Z,18.70
2022-08-03T03:55:37.909Z,18.80
2022-08-03T03:58:24.921Z,18.80
2022-08-03T04:00:53.152Z,18.90
2022-08-03T04:03:19.737Z,18.92
2022-08-03T04:06:04.597Z,19.00
2022-08-03T04:08:49.570Z,19.00
2022-08-03T04:11:30.031Z,19.10
2022-08-03T04:14:09.106Z,19.18
2022-08-03T04:16:43.634Z,19.20
2022-08-03T04:19:34.565Z,19.30
2022-08-03T04:22:08.705Z,19.40
2022-08-03T04:24:46.093Z,19.50
2022-08-03T04:27:17.263Z,19.50
2022-08-03T04:29:48.879Z,19.60
2022-08-03T04:32:16.878Z,19.60
2022-08-03T04:34:43.771Z,19.60
2022-08-03T04:37:47.129Z,19.70
2022-08-03T04:40:22.785Z,19.70
2022-08-03T04:42:50.382Z,19.70
2022-08-03T04:45:18.815Z,19.70
2022-08-03T04:47:46.183Z,19.70
2022-08-03T04:50:16.002Z,19.70
2022-08-03T04:53:05.304Z,19.70
2022-08-03T04:55:33.904Z,19.80
2022-08-03T04:58:01.785Z,19.80
2022-08-03T05:00:28.657Z,19.80
2022-08-03T05:02:55.853Z,19.90
2022-08-03T05:05:22.622Z,19.98
2022-08-03T05:07:49.849Z,20.00
2022-08-03T05:10:17.199Z,20.10
2022-08-03T05:12:47.151Z,20.14
2022-08-03T05:15:14.549Z,20.20
2022-08-03T05:17:41.165Z,20.26
2022-08-03T05:20:08.636Z,20.30
2022-08-03T05:22:35.058Z,20.40
2022-08-03T05:25:02.439Z,20.40
2022-08-03T05:27:29.030Z,20.50
2022-08-03T05:29:55.520Z,20.50
2022-08-03T05:32:22.251Z,20.60
2022-08-03T05:34:48.980Z,20.60
2022-08-03T05:37:15.462Z,20.66
2022-08-03T05:39:41.925Z,20.70
2022-08-03T05:42:10.065Z,20.80
2022-08-03T05:44:38.094Z,20.90
2022-08-03T05:47:05.508Z,21.00
2022-08-03T05:49:31.964Z,21.14
2022-08-03T05:52:08.120Z,21.20
2022-08-03T05:54:55.492Z,21.30
2022-08-03T05:57:25.131Z,21.26
2022-08-03T05:59:54.620Z,21.30
2022-08-03T06:02:27.441Z,21.30
2022-08-03T06:04:54.041Z,21.30
2022-08-03T06:07:20.484Z,21.34
2022-08-03T06:10:33.233Z,21.40
2022-08-03T06:12:36.443Z,21.30
2022-08-03T06:15:07.865Z,21.32
2022-08-03T06:17:49.015Z,21.30
2022-08-03T06:20:20.410Z,21.30
2022-08-03T06:22:50.795Z,21.44
2022-08-03T06:25:18.803Z,21.80
2022-08-03T06:27:47.885Z,22.08
2022-08-03T06:30:17.025Z,22.68
2022-08-03T06:32:51.748Z,23.00
2022-08-03T06:35:19.261Z,23.30
2022-08-03T06:37:49.039Z,23.46
2022-08-03T06:40:29.146Z,23.80
2022-08-03T06:43:00.413Z,24.00
2022-08-03T06:45:32.030Z,23.90
2022-08-03T06:48:07.811Z,23.90
2022-08-03T06:50:37.136Z,23.88
2022-08-03T06:53:05.214Z,23.80
2022-08-03T06:55:32.001Z,23.70
2022-08-03T06:57:59.819Z,23.54
2022-08-03T07:00:30.304Z,23.40
2022-08-03T07:02:58.517Z,23.30
2022-08-03T07:05:25.584Z,23.30
2022-08-03T07:07:57.109Z,23.20
2022-08-03T07:10:23.735Z,23.18
2022-08-03T07:12:55.659Z,23.12
2022-08-03T07:15:55.666Z,23.20
2022-08-03T07:18:09.845Z,23.20
2022-08-03T07:20:36.333Z,23.20
2022-08-03T07:23:02.883Z,23.24
2022-08-03T07:25:29.359Z,23.30
2022-08-03T07:27:55.848Z,23.30
2022-08-03T07:30:23.095Z,23.40
2022-08-03T07:32:50.293Z,23.40
2022-08-03T07:35:25.032Z,23.50
2022-08-03T07:37:54.221Z,23.60
2022-08-03T07:40:22.277Z,23.70
2022-08-03T07:42:53.388Z,23.90
2022-08-03T07:45:22.663Z,24.10
2022-08-03T07:47:53.861Z,24.20
2022-08-03T07:50:21.913Z,24.40
2022-08-03T07:52:49.891Z,24.62
2022-08-03T07:55:22.183Z,24.80
2022-08-03T07:58:08.638Z,24.94
2022-08-03T08:00:36.149Z,25.18
2022-08-03T08:03:03.431Z,25.20
2022-08-03T08:05:30.848Z,25.34
2022-08-03T08:07:57.547Z,25.40
2022-08-03T08:10:24.012Z,25.50
2022-08-03T08:12:50.597Z,25.50
2022-08-03T08:15:17.156Z,25.60
2022-08-03T08:17:49.407Z,25.80
2022-08-03T08:20:25.219Z,25.90
2022-08-03T08:22:58.603Z,26.08
2022-08-03T08:25:29.951Z,26.10
2022-08-03T08:28:22.194Z,26.20
2022-08-03T08:30:43.972Z,26.20
2022-08-03T08:33:22.518Z,26.20
2022-08-03T08:35:52.789Z,26.20
2022-08-03T08:38:19.376Z,26.20
2022-08-03T08:40:46.369Z,26.20
2022-08-03T08:43:12.880Z,26.20
2022-08-03T08:45:40.962Z,26.10
2022-08-03T08:48:10.012Z,26.10
2022-08-03T08:50:38.365Z,26.00
2022-08-03T08:53:07.268Z,26.00
2022-08-03T08:55:58.002Z,26.00
2022-08-03T08:58:24.195Z,26.00
2022-08-03T09:00:51.014Z,26.00
2022-08-03T09:03:28.973Z,26.10
2022-08-03T09:05:56.645Z,26.16
2022-08-03T09:08:23.312Z,26.20
2022-08-03T09:10:49.733Z,26.28
2022-08-03T09:13:16.212Z,26.30
2022-08-03T09:15:57.164Z,26.30
2022-08-03T09:18:32.555Z,26.40
2022-08-03T09:21:33.285Z,26.40
2022-08-03T09:24:05.332Z,26.30
2022-08-03T09:26:35.846Z,26.30
2022-08-03T09:29:14.022Z,26.30
2022-08-03T09:31:46.287Z,26.26
2022-08-03T09:34:16.676Z,26.26
2022-08-03T09:36:46.902Z,26.20
2022-08-03T09:39:16.861Z,26.30
2022-08-03T09:42:03.039Z,26.20
2022-08-03T09:44:44.453Z,26.30
2022-08-03T09:47:13.269Z,26.30
2022-08-03T09:49:42.215Z,26.40
2022-08-03T09:52:32.613Z,26.40
2022-08-03T09:55:23.702Z,26.40
2022-08-03T09:58:08.759Z,26.60
2022-08-03T10:00:54.414Z,26.60
2022-08-03T10:03:21.343Z,26.60
2022-08-03T10:05:47.963Z,26.60
2022-08-03T10:08:16.699Z,26.50
2022-08-03T10:10:45.704Z,26.50
2022-08-03T10:13:18.125Z,26.50
2022-08-03T10:16:22.329Z,26.50
2022-08-03T10:18:32.524Z,26.50
2022-08-03T10:21:03.762Z,26.50
2022-08-03T10:23:35.064Z,26.60
2022-08-03T10:26:04.061Z,26.60
2022-08-03T10:28:45.350Z,26.70
2022-08-03T10:31:13.817Z,26.70
2022-08-03T10:33:51.181Z,26.80
2022-08-03T10:36:25.828Z,26.90
2022-08-03T10:38:53.512Z,26.90
2022-08-03T10:41:25.321Z,27.00
2022-08-03T10:44:02.385Z,27.00
2022-08-03T10:46:28.767Z,27.00
2022-08-03T10:48:56.350Z,27.00
2022-08-03T10:51:23.394Z,26.90
2022-08-03T10:53:55.238Z,26.90
2022-08-03T10:56:50.507Z,26.90
2022-08-03T10:59:45.989Z,26.96
2022-08-03T11:02:14.620Z,27.00
2022-08-03T11:04:44.088Z,27.00
2022-08-03T11:07:17.016Z,27.10
2022-08-03T11:09:54.814Z,27.16
2022-08-03T11:12:29.934Z,27.20
2022-08-03T11:15:08.045Z,27.30
2022-08-03T11:17:46.238Z,27.40
2022-08-03T11:20:52.279Z,27.40
2022-08-03T11:24:05.399Z,27.60
2022-08-03T11:26:30.602Z,27.70
2022-08-03T11:29:30.397Z,27.80
2022-08-03T11:31:57.140Z,28.00
2022-08-03T11:34:24.546Z,28.10
2022-08-03T11:37:28.541Z,28.20
2022-08-03T11:39:56.492Z,28.30
2022-08-03T11:42:23.376Z,28.40
2022-08-03T11:44:58.656Z,28.40
2022-08-03T11:47:28.365Z,28.40
2022-08-03T11:50:01.271Z,28.40
2022-08-03T11:52:37.409Z,28.40
2022-08-03T11:55:10.089Z,28.40
2022-08-03T11:59:19.011Z,28.40
2022-08-03T12:00:29.817Z,28.50
2022-08-03T12:02:59.780Z,28.58
2022-08-03T12:05:51.597Z,28.60
2022-08-03T12:08:27.991Z,28.70
2022-08-03T12:10:56.724Z,28.80
2022-08-03T12:14:44.816Z,28.90
2022-08-03T12:16:30.400Z,29.00
2022-08-03T12:19:06.124Z,29.10
2022-08-03T12:21:32.775Z,29.20
2022-08-03T12:24:04.098Z,29.20
2022-08-03T12:26:58.618Z,29.38
2022-08-03T12:29:35.953Z,29.48
2022-08-03T12:32:02.971Z,29.60
2022-08-03T12:34:49.115Z,29.60
2022-08-03T12:37:22.698Z,29.70
2022-08-03T12:40:05.025Z,29.84
2022-08-03T12:42:38.250Z,29.96
2022-08-03T12:45:25.674Z,30.00
2022-08-03T12:48:00.662Z,30.18
2022-08-03T12:50:32.919Z,30.20
2022-08-03T12:53:02.428Z,30.30
2022-08-03T12:55:33.083Z,30.40
2022-08-03T12:58:35.598Z,30.50
2022-08-03T13:01:05.166Z,30.68
2022-08-03T13:03:46.001Z,30.80
2022-08-03T13:06:25.036Z,31.00
2022-08-03T13:09:07.759Z,31.10
2022-08-03T13:11:58.061Z,31.20
2022-08-03T13:14:21.103Z,31.30
2022-08-03T13:16:50.457Z,31.40
2022-08-03T13:19:17.130Z,31.50
2022-08-03T13:22:01.835Z,31.70
2022-08-03T13:24:33.062Z,31.80
2022-08-03T13:27:00.494Z,31.90
2022-08-03T13:29:26.872Z,32.00
2022-08-03T13:31:53.323Z,32.16
2022-08-03T13:34:23.500Z,32.30
2022-08-03T13:37:09.419Z,32.46
2022-08-03T13:39:57.545Z,32.70
2022-08-03T13:42:23.424Z,32.90
2022-08-03T13:44:50.165Z,33.18
2022-08-03T13:47:16.819Z,33.30
2022-08-03T13:49:59.779Z,33.60
2022-08-03T13:52:34.001Z,34.10
2022-08-03T13:55:03.466Z,34.58
2022-08-03T13:58:06.400Z,35.64
2022-08-03T14:00:27.614Z,37.52
2022-08-03T14:03:06.557Z,39.26
2022-08-03T14:05:39.572Z,40.74
2022-08-03T14:08:06.768Z,42.18
2022-08-03T14:10:37.119Z,43.78
2022-08-03T14:13:05.262Z,45.18
2022-08-03T14:15:31.794Z,45.62
2022-08-03T14:17:59.072Z,46.78
2022-08-03T14:20:36.618Z,48.22
2022-08-03T14:23:06.999Z,49.00
2022-08-03T14:25:44.434Z,49.40
2022-08-03T14:28:18.605Z,50.16
2022-08-03T14:30:45.880Z,51.20
2022-08-03T14:33:12.316Z,51.90
2022-08-03T14:35:38.857Z,52.26
2022-08-03T14:38:06.325Z,52.96
2022-08-03T14:40:33.020Z,53.02
2022-08-03T14:42:59.426Z,52.78
2022-08-03T14:45:26.016Z,53.20
2022-08-03T14:50:29.293Z,52.88
2022-08-03T14:50:44.250Z,50.48
2022-08-03T14:53:12.175Z,47.68
2022-08-03T14:55:50.760Z,45.74
2022-08-03T14:58:24.584Z,43.78
2022-08-03T15:00:53.066Z,42.44
2022-08-03T15:03:24.718Z,41.30
2022-08-03T15:05:56.163Z,40.02
2022-08-03T15:08:24.355Z,38.86
2022-08-03T15:10:51.747Z,37.76
2022-08-03T15:13:19.408Z,36.92
2022-08-03T15:15:47.026Z,35.96
2022-08-03T15:18:13.471Z,35.20
2022-08-03T15:20:45.405Z,34.62
2022-08-03T15:23:15.728Z,34.14
2022-08-03T15:26:03.556Z,33.64
2022-08-03T15:28:31.693Z,32.96
2022-08-03T15:30:58.247Z,32.44
2022-08-03T15:33:24.755Z,32.04
2022-08-03T15:35:52.299Z,31.70
2022-08-03T15:38:19.433Z,31.50
2022-08-03T15:40:46.018Z,31.22
2022-08-03T15:43:12.416Z,30.90
2022-08-03T15:45:39.897Z,30.70
2022-08-03T15:48:06.876Z,30.50
2022-08-03T15:50:34.119Z,30.40
2022-08-03T15:53:00.543Z,30.48
2022-08-03T15:55:27.159Z,30.58
2022-08-03T15:59:01.146Z,30.48
2022-08-03T16:00:42.260Z,30.30
2022-08-03T16:03:09.576Z,30.10
2022-08-03T16:05:36.371Z,30.00
2022-08-03T16:08:05.056Z,29.90
2022-08-03T16:10:33.579Z,29.80
2022-08-03T16:13:00.390Z,29.70
2022-08-03T16:15:27.377Z,29.70
2022-08-03T16:17:54.267Z,29.60
2022-08-03T16:20:34.406Z,29.60
2022-08-03T16:23:10.480Z,29.50
2022-08-03T16:25:43.755Z,29.50
2022-08-03T16:28:16.105Z,29.40
2022-08-03T16:30:45.415Z,29.30
2022-08-03T16:33:17.326Z,29.28
2022-08-03T16:35:46.148Z,29.20
2022-08-03T16:38:16.795Z,29.10
2022-08-03T16:40:52.337Z,29.00
2022-08-03T16:43:21.584Z,28.92
2022-08-03T16:45:48.587Z,28.90
2022-08-03T16:48:16.175Z,28.80
2022-08-03T16:50:43.683Z,28.72
2022-08-03T16:53:16.634Z,28.62
2022-08-03T16:55:53.221Z,28.60
2022-08-03T16:58:24.297Z,28.60
2022-08-03T17:01:01.614Z,28.50
2022-08-03T17:03:57.398Z,28.50
2022-08-03T17:06:26.710Z,28.40
2022-08-03T17:09:08.470Z,28.30
2022-08-03T17:11:46.587Z,28.24
2022-08-03T17:14:21.853Z,28.20
2022-08-03T17:16:52.979Z,28.10
2022-08-03T17:19:23.643Z,28.08
2022-08-03T17:22:08.215Z,28.00
2022-08-03T17:24:44.809Z,27.98
2022-08-03T17:28:42.379Z,27.90
2022-08-03T17:30:10.508Z,27.80
2022-08-03T17:32:42.323Z,27.80
2022-08-03T17:35:10.322Z,27.70
2022-08-03T17:37:57.415Z,27.70
2022-08-03T17:40:24.059Z,27.60
2022-08-03T17:42:52.170Z,27.60
2022-08-03T17:45:19.663Z,27.60
2022-08-03T17:47:57.339Z,27.50
2022-08-03T17:50:32.061Z,27.50
2022-08-03T17:53:27.476Z,27.50
2022-08-03T17:56:44.556Z,27.42
2022-08-03T17:59:51.520Z,27.40
2022-08-03T18:02:58.192Z,27.30
2022-08-03T18:08:36.365Z,27.20
2022-08-03T18:11:14.901Z,27.18
2022-08-03T18:13:53.521Z,27.10
2022-08-03T18:16:34.695Z,27.00
2022-08-03T18:19:09.710Z,27.00
2022-08-03T18:22:02.239Z,26.90
2022-08-03T18:24:29.177Z,26.82
2022-08-03T18:26:58.176Z,26.80
2022-08-03T18:29:26.860Z,26.70
2022-08-03T18:32:06.042Z,26.70
2022-08-03T18:34:36.559Z,26.60
2022-08-03T18:37:08.219Z,26.60
2022-08-03T18:39:49.295Z,26.52
2022-08-03T18:42:19.692Z,26.50
2022-08-03T18:44:54.376Z,26.40
2022-08-03T18:47:52.322Z,26.40
2022-08-03T18:50:39.061Z,26.30
2022-08-03T18:54:03.908Z,26.22
2022-08-03T18:56:32.085Z,26.20
2022-08-03T18:59:30.758Z,26.14
2022-08-03T19:02:06.609Z,26.10
2022-08-03T19:04:46.636Z,26.10
2022-08-03T19:07:18.092Z,26.00
2022-08-03T19:09:55.572Z,25.92
2022-08-03T19:12:33.927Z,25.90
2022-08-03T19:15:12.364Z,25.82
2022-08-03T19:17:52.782Z,25.80
2022-08-03T19:20:24.988Z,25.80
2022-08-03T19:22:54.239Z,25.70
2022-08-03T19:25:34.858Z,25.70
2022-08-03T19:28:06.231Z,25.60
2022-08-03T19:30:38.958Z,25.58
2022-08-03T19:33:09.682Z,25.50
2022-08-03T19:35:51.411Z,25.44
2022-08-03T19:38:28.300Z,25.40
2022-08-03T19:41:03.560Z,25.30
2022-08-03T19:43:53.057Z,25.30
2022-08-03T19:46:30.524Z,25.20
2022-08-03T19:49:14.990Z,25.20
2022-08-03T19:52:02.307Z,25.20
2022-08-03T19:54:52.923Z,25.10
2022-08-03T19:57:24.551Z,25.10
2022-08-03T19:59:53.195Z,25.04
2022-08-03T20:02:26.416Z,25.00
2022-08-03T20:04:59.881Z,25.00
2022-08-03T20:07:31.300Z,24.90
2022-08-03T20:10:01.374Z,24.90
2022-08-03T20:12:29.554Z,24.90
2022-08-03T20:14:57.913Z,24.80
2022-08-03T20:17:54.536Z,24.80
2022-08-03T20:20:17.889Z,24.80
2022-08-03T20:22:50.620Z,24.70
2022-08-03T20:25:21.650Z,24.70
2022-08-03T20:28:06.917Z,24.70
2022-08-03T20:30:35.211Z,24.60
2022-08-03T20:33:01.821Z,24.60
2022-08-03T20:35:28.492Z,24.58
2022-08-03T20:37:55.134Z,24.50
2022-08-03T20:40:23.138Z,24.50
2022-08-03T20:42:54.702Z,24.46
2022-08-03T20:46:01.206Z,24.40
2022-08-03T20:48:10.172Z,24.40
2022-08-03T20:50:38.145Z,24.38
2022-08-03T20:53:07.576Z,24.30
2022-08-03T20:55:47.783Z,24.26
2022-08-03T20:58:26.470Z,24.20
2022-08-03T21:00:53.750Z,24.10
2022-08-03T21:03:20.285Z,24.10
2022-08-03T21:05:51.843Z,24.00
2022-08-03T21:08:25.651Z,24.00
2022-08-03T21:10:53.417Z,23.90
2022-08-03T21:12:56.699Z,27.30
2022-08-03T21:13:34.942Z,23.90
2022-08-03T21:16:11.962Z,23.80
2022-08-03T21:18:50.029Z,23.80
2022-08-03T21:21:22.955Z,23.80
2022-08-03T21:23:53.882Z,23.80
2022-08-03T21:26:25.607Z,23.70
2022-08-03T21:28:55.273Z,23.70
2022-08-03T21:31:25.507Z,23.70
2022-08-03T21:34:00.331Z,23.70
2022-08-03T21:36:30.336Z,23.60
2022-08-03T21:38:58.657Z,23.60
2022-08-03T21:41:28.177Z,23.60
2022-08-03T21:43:55.515Z,23.50
2022-08-03T21:46:22.794Z,23.50
2022-08-03T21:50:07.809Z,23.48
2022-08-03T21:51:50.421Z,23.40
2022-08-03T21:54:20.464Z,23.40
2022-08-03T21:56:50.309Z,23.30
2022-08-03T21:59:19.539Z,23.30
2022-08-03T22:01:54.975Z,23.24
2022-08-03T22:04:37.238Z,23.20
2022-08-03T22:07:09.161Z,23.20
2022-08-03T22:09:36.094Z,23.12
2022-08-03T22:12:03.445Z,23.10
2022-08-03T22:14:32.409Z,23.08
2022-08-03T22:17:00.062Z,23.00
2022-08-03T22:19:26.728Z,23.00
2022-08-03T22:21:53.818Z,22.90
2022-08-03T22:24:27.525Z,22.90
2022-08-03T22:27:13.803Z,22.82
2022-08-03T22:29:41.507Z,22.80
2022-08-03T22:32:08.701Z,22.80
2022-08-03T22:34:36.836Z,22.78
2022-08-03T22:37:03.997Z,22.70
2022-08-03T22:39:31.489Z,22.70
2022-08-03T22:41:59.280Z,22.68
2022-08-03T22:44:26.818Z,22.60
2022-08-03T22:46:53.702Z,22.60
2022-08-03T22:49:21.541Z,22.50
2022-08-03T22:51:51.038Z,22.50
2022-08-03T22:54:17.976Z,22.50
2022-08-03T22:56:49.244Z,22.50
2022-08-03T22:59:40.907Z,22.46
2022-08-03T23:02:16.843Z,22.40
2022-08-03T23:04:55.389Z,22.40
2022-08-03T23:07:31.274Z,22.40
2022-08-03T23:10:00.513Z,22.30
2022-08-03T23:12:29.762Z,22.30
2022-08-03T23:15:04.671Z,22.30
2022-08-03T23:17:32.522Z,22.24
2022-08-03T23:20:07.852Z,22.20
2022-08-03T23:22:37.875Z,22.20
2022-08-03T23:25:10.729Z,22.10
2022-08-03T23:27:42.924Z,22.10
2022-08-03T23:30:11.855Z,22.08
2022-08-03T23:32:42.366Z,22.00
2022-08-03T23:36:09.045Z,22.00
2022-08-03T23:38:22.758Z,21.98
2022-08-03T23:40:51.306Z,21.90
2022-08-03T23:43:53.386Z,21.90
2022-08-03T23:46:07.107Z,21.80
2022-08-03T23:48:33.954Z,21.80
2022-08-03T23:51:09.490Z,21.76
2022-08-03T23:53:50.242Z,21.70
2022-08-03T23:56:31.763Z,21.70
2022-08-03T23:59:25.414Z,21.60
